createdAt,value
2023-03-01T00:01:48.382Z,16.45
2023-03-01T00:04:16.625Z,14.40
2023-03-01T00:06:47.434Z,16.25
2023-03-01T00:09:16.857Z,15.43
2023-03-01T00:11:45.291Z,16.55
2023-03-01T00:14:13.494Z,17.17
2023-03-01T00:16:43.549Z,17.05
2023-03-01T00:19:17.331Z,17.58
2023-03-01T00:21:46.012Z,16.77
2023-03-01T00:24:14.491Z,17.92
2023-03-01T00:26:42.631Z,16.27
2023-03-01T00:29:10.850Z,16.42
2023-03-01T00:31:39.039Z,15.10
2023-03-01T00:34:07.502Z,14.18
2023-03-01T00:36:38.011Z,14.70
2023-03-01T00:39:12.197Z,14.63
2023-03-01T00:41:41.581Z,15.23
2023-03-01T00:44:11.107Z,15.57
2023-03-01T00:46:39.738Z,14.90
2023-03-01T00:49:07.953Z,15.05
2023-03-01T00:51:36.190Z,15.10
2023-03-01T00:54:04.390Z,15.27
2023-03-01T00:56:33.366Z,15.50
2023-03-01T00:59:02.496Z,15.43
2023-03-01T01:01:32.494Z,16.50
2023-03-01T01:04:03.864Z,16.27
2023-03-01T01:06:40.054Z,18.23
2023-03-01T01:09:08.805Z,18.55
2023-03-01T01:11:37.764Z,19.27
2023-03-01T01:14:05.740Z,17.48
2023-03-01T01:16:34.572Z,18.75
2023-03-01T01:19:03.462Z,17.73
2023-03-01T01:21:31.810Z,17.25
2023-03-01T01:24:00.528Z,18.17
2023-03-01T01:26:33.894Z,16.80
2023-03-01T01:29:03.630Z,16.98
2023-03-01T01:31:32.546Z,17.20
2023-03-01T01:34:01.782Z,18.23
2023-03-01T01:36:30.861Z,17.83
2023-03-01T01:38:59.664Z,17.48
2023-03-01T01:41:30.154Z,16.67
2023-03-01T01:44:18.343Z,17.13
2023-03-01T01:46:55.496Z,15.85
2023-03-01T01:52:15.136Z,14.57
2023-03-01T01:55:05.732Z,16.98
2023-03-01T01:57:38.812Z,15.95
2023-03-01T02:00:21.064Z,17.08
2023-03-01T02:02:53.395Z,14.55
2023-03-01T02:05:24.736Z,15.77
2023-03-01T02:07:54.012Z,16.25
2023-03-01T02:10:25.611Z,15.43
2023-03-01T02:12:54.712Z,14.93
2023-03-01T02:15:24.253Z,15.90
2023-03-01T02:17:53.878Z,16.00
2023-03-01T02:20:50.786Z,17.80
2023-03-01T02:23:18.972Z,18.73
2023-03-01T02:25:57.200Z,17.75
2023-03-01T02:28:51.794Z,17.15
2023-03-01T02:31:40.939Z,17.88
2023-03-01T02:34:13.967Z,17.25
2023-03-01T02:36:52.395Z,15.30
2023-03-01T02:39:27.248Z,15.88
2023-03-01T02:41:58.612Z,16.25
2023-03-01T02:44:27.135Z,16.45
2023-03-01T02:46:57.962Z,15.38
2023-03-01T02:49:33.138Z,16.45
2023-03-01T02:52:34.533Z,14.60
2023-03-01T02:55:16.664Z,14.85
2023-03-01T02:57:51.910Z,13.27
2023-03-01T03:00:24.598Z,15.13
2023-03-01T03:02:54.766Z,15.27
2023-03-01T03:05:30.837Z,15.52
2023-03-01T03:08:01.955Z,15.95
2023-03-01T03:10:36.778Z,17.10
2023-03-01T03:13:08.865Z,16.58
2023-03-01T03:15:37.385Z,17.05
2023-03-01T03:18:07.468Z,15.95
2023-03-01T03:20:36.009Z,15.57
2023-03-01T03:23:04.222Z,15.32
2023-03-01T03:25:32.378Z,16.00
2023-03-01T03:28:00.949Z,16.00
2023-03-01T03:30:32.245Z,17.65
2023-03-01T03:33:00.934Z,17.55
2023-03-01T03:35:35.451Z,17.10
2023-03-01T03:38:07.612Z,17.70
2023-03-01T03:40:38.618Z,16.40
2023-03-01T03:43:09.900Z,17.52
2023-03-01T03:45:38.633Z,16.70
2023-03-01T03:48:10.549Z,16.63
2023-03-01T03:50:41.225Z,17.42
2023-03-01T03:53:13.657Z,18.67
2023-03-01T03:55:41.812Z,17.85
2023-03-01T03:58:11.574Z,15.18
2023-03-01T04:00:43.160Z,15.90
2023-03-01T04:03:13.735Z,15.30
2023-03-01T04:05:42.863Z,16.08
2023-03-01T04:08:11.108Z,16.10
2023-03-01T04:10:43.817Z,17.10
2023-03-01T04:13:23.630Z,18.27
2023-03-01T04:15:53.539Z,18.33
2023-03-01T04:18:24.498Z,17.15
2023-03-01T04:20:56.792Z,17.90
2023-03-01T04:23:25.316Z,17.50
2023-03-01T04:25:56.341Z,18.13
2023-03-01T04:28:37.283Z,18.20
2023-03-01T04:31:14.496Z,16.60
2023-03-01T04:33:44.674Z,18.05
2023-03-01T04:36:14.778Z,16.67
2023-03-01T04:38:43.922Z,16.63
2023-03-01T04:41:12.510Z,17.48
2023-03-01T04:43:40.544Z,17.13
2023-03-01T04:46:14.500Z,15.88
2023-03-01T04:48:44.873Z,16.15
2023-03-01T04:51:17.118Z,15.80
2023-03-01T04:53:45.583Z,15.80
2023-03-01T04:56:15.209Z,15.45
2023-03-01T04:58:43.516Z,15.10
2023-03-01T05:01:21.412Z,17.27
2023-03-01T05:03:51.945Z,16.58
2023-03-01T05:06:21.817Z,15.43
2023-03-01T05:08:50.025Z,15.35
2023-03-01T05:11:18.120Z,16.55
2023-03-01T05:13:46.434Z,15.63
2023-03-01T05:16:14.647Z,16.05
2023-03-01T05:18:42.826Z,17.02
2023-03-01T05:21:13.495Z,16.63
2023-03-01T05:23:42.019Z,16.35
2023-03-01T05:26:22.442Z,16.48
2023-03-01T05:29:00.536Z,16.52
2023-03-01T17:44:13.601Z,15.30
2023-03-01T17:46:41.777Z,16.13
2023-03-01T17:49:09.705Z,15.52
2023-03-01T17:51:38.566Z,16.63
2023-03-01T17:54:06.624Z,15.75
2023-03-01T17:56:35.129Z,15.75
2023-03-01T17:59:04.722Z,15.50
2023-03-01T18:01:34.190Z,15.85
2023-03-01T18:04:02.690Z,15.57
2023-03-01T18:06:31.132Z,14.40
2023-03-01T18:08:59.607Z,16.50
2023-03-01T18:11:27.960Z,15.38
2023-03-01T18:13:56.432Z,15.70
2023-03-01T18:16:24.841Z,15.07
2023-03-01T18:18:55.464Z,16.50
2023-03-01T18:21:24.074Z,14.98
2023-03-01T18:23:52.329Z,13.20
2023-03-01T18:26:22.564Z,13.25
2023-03-01T18:28:52.202Z,15.52
2023-03-01T18:31:23.092Z,17.15
2023-03-01T18:33:55.647Z,14.95
2023-03-01T18:36:30.365Z,15.38
2023-03-01T18:39:01.826Z,15.05
2023-03-01T18:41:30.453Z,14.45
2023-03-01T18:43:59.262Z,14.57
2023-03-01T18:46:27.383Z,16.17
2023-03-01T18:48:56.133Z,13.68
2023-03-01T18:51:27.852Z,13.70
2023-03-01T18:53:58.966Z,14.32
2023-03-01T18:56:30.023Z,14.30
2023-03-01T18:58:59.837Z,13.00
2023-03-01T19:01:30.954Z,13.25
2023-03-01T19:03:59.699Z,12.55
2023-03-01T19:06:34.797Z,13.40
2023-03-01T19:09:03.857Z,12.13
2023-03-01T19:11:33.857Z,12.43
2023-03-01T19:14:02.700Z,11.90
2023-03-01T19:16:33.750Z,12.07
2023-03-01T19:19:04.531Z,11.85
2023-03-01T19:21:33.662Z,13.20
2023-03-01T19:24:05.033Z,11.75
2023-03-01T19:26:33.758Z,12.98
2023-03-01T19:29:03.885Z,12.23
2023-03-01T19:31:32.610Z,12.75
2023-03-01T19:34:16.202Z,12.02
2023-03-01T19:36:45.046Z,13.60
2023-03-01T19:39:14.216Z,12.88
2023-03-01T19:41:43.483Z,11.82
2023-03-01T19:44:12.366Z,13.38
2023-03-01T19:46:42.309Z,11.70
2023-03-01T19:49:11.362Z,12.38
2023-03-01T19:51:40.070Z,11.48
2023-03-01T19:54:10.322Z,12.07
2023-03-01T19:56:39.185Z,12.45
2023-03-01T19:59:07.680Z,11.15
2023-03-01T20:01:38.130Z,11.60
2023-03-01T20:04:07.067Z,11.00
2023-03-01T20:06:35.935Z,11.27
2023-03-01T20:09:20.341Z,11.25
2023-03-01T20:11:50.452Z,11.20
2023-03-01T20:14:20.221Z,11.10
2023-03-01T20:16:50.040Z,11.32
2023-03-01T20:19:18.304Z,10.68
2023-03-01T20:21:46.485Z,10.52
2023-03-01T20:24:14.677Z,11.23
2023-03-01T20:26:42.873Z,11.23
2023-03-01T20:29:12.123Z,11.82
2023-03-01T20:31:42.894Z,11.63
2023-03-01T20:34:14.080Z,11.57
2023-03-01T20:36:44.595Z,11.30
2023-03-01T20:39:13.083Z,12.38
2023-03-01T20:41:41.351Z,11.52
2023-03-01T20:44:09.912Z,12.05
2023-03-01T20:46:38.565Z,12.35
2023-03-01T20:49:07.626Z,12.27
2023-03-01T20:51:36.014Z,12.40
2023-03-01T20:54:05.422Z,12.05
2023-03-01T20:56:34.107Z,12.18
2023-03-01T20:59:09.782Z,13.68
2023-03-01T21:01:39.136Z,14.80
2023-03-01T21:04:07.562Z,14.32
2023-03-01T21:06:36.483Z,16.33
2023-03-01T21:09:05.652Z,15.02
2023-03-01T21:11:33.866Z,16.05
2023-03-01T21:14:02.294Z,15.05
2023-03-01T21:16:31.652Z,15.73
2023-03-01T21:19:02.064Z,16.27
2023-03-01T21:21:30.334Z,14.90
2023-03-01T21:23:58.609Z,15.75
2023-03-01T21:26:27.909Z,14.95
2023-03-01T21:29:01.825Z,14.15
2023-03-01T21:31:35.853Z,15.20
2023-03-01T21:34:06.589Z,14.52
2023-03-01T21:36:36.415Z,14.57
2023-03-01T21:39:06.868Z,15.10
2023-03-01T21:41:37.526Z,14.25
2023-03-01T21:44:07.762Z,14.88
2023-03-01T21:46:39.783Z,15.07
2023-03-01T21:49:10.016Z,14.98
2023-03-01T21:51:43.294Z,14.43
2023-03-01T21:54:17.534Z,15.57
2023-03-01T21:56:47.574Z,15.00
2023-03-01T21:59:19.134Z,14.98
2023-03-01T22:01:48.858Z,14.02
2023-03-01T22:04:18.417Z,15.25
2023-03-01T22:06:54.642Z,15.00
2023-03-01T22:09:24.161Z,16.37
2023-03-01T22:12:03.088Z,16.23
2023-03-01T22:14:31.982Z,15.23
2023-03-01T22:17:00.425Z,15.27
2023-03-01T22:19:29.014Z,16.77
2023-03-01T22:21:57.427Z,16.20
2023-03-01T22:24:26.266Z,15.98
2023-03-01T22:26:55.513Z,16.77
2023-03-01T22:29:26.856Z,15.23
2023-03-01T22:31:56.405Z,15.55
2023-03-01T22:34:24.787Z,16.02
2023-03-01T22:36:53.113Z,16.00
2023-03-01T22:39:21.824Z,16.02
2023-03-01T22:41:50.543Z,17.15
2023-03-01T22:44:22.068Z,16.50
2023-03-01T22:46:50.692Z,16.83
2023-03-01T22:49:20.104Z,15.90
2023-03-01T22:51:49.371Z,15.73
2023-03-01T22:54:19.401Z,17.05
2023-03-01T22:56:48.308Z,15.35
2023-03-01T22:59:19.999Z,15.52
2023-03-01T23:01:48.678Z,15.68
2023-03-01T23:04:17.963Z,15.25
2023-03-01T23:06:56.177Z,15.38
2023-03-01T23:09:35.230Z,15.35
2023-03-01T23:12:07.029Z,15.90
2023-03-01T23:14:36.032Z,16.80
2023-03-01T23:17:05.742Z,15.57
2023-03-01T23:19:34.270Z,16.92
2023-03-01T23:22:02.549Z,17.13
2023-03-01T23:24:32.246Z,16.42
2023-03-01T23:27:02.528Z,16.58
2023-03-01T23:29:32.116Z,15.27
2023-03-01T23:32:01.354Z,15.50
2023-03-01T23:34:29.892Z,16.08
2023-03-01T23:36:58.959Z,17.17
2023-03-01T23:39:28.291Z,17.50
2023-03-01T23:41:57.473Z,17.08
2023-03-01T23:44:26.030Z,17.50
2023-03-01T23:46:54.333Z,17.17
2023-03-01T23:49:24.277Z,17.75
2023-03-01T23:51:52.655Z,17.00
2023-03-01T23:54:23.814Z,18.13
2023-03-01T23:56:52.195Z,17.65
2023-03-01T23:59:22.918Z,17.75
